Time;durP1;ratioP1;P1;durP2;ratioP2;P2;SDS_P1;SDS_P2;PMS_P1;PMS_P2;Temp;Humidity;BMP_temperature;BMP_pressure;BME280_temperature;BME280_humidity;BME280_pressure;Samples;Min_cycle;Max_cycle;Signal;HPM_P1;HPM_P2
2023/04/29 00:01:02;;;;;;;11.87;7.43;;;5.50;99.90;;;;;;4147092;28;20317;-72
2023/04/29 00:03:03;;;;;;;13.70;8.10;;;5.50;99.90;;;;;;4146579;28;21228;-73
2023/04/29 00:05:05;;;;;;;15.70;8.00;;;5.50;99.90;;;;;;4160295;28;20270;-73
2023/04/29 00:07:07;;;;;;;16.53;8.00;;;5.50;99.90;;;;;;4162953;28;20540;-71
2023/04/29 00:09:08;;;;;;;13.80;8.93;;;5.40;99.90;;;;;;4163294;28;20049;-71
2023/04/29 00:11:10;;;;;;;16.97;8.77;;;5.30;99.90;;;;;;4162865;28;20067;-73
2023/04/29 00:13:12;;;;;;;24.37;10.47;;;5.40;99.90;;;;;;4163933;28;20294;-73
2023/04/29 00:15:13;;;;;;;19.07;9.73;;;5.30;99.90;;;;;;4162416;28;20283;-72
2023/04/29 00:17:15;;;;;;;17.23;10.07;;;5.40;99.90;;;;;;4163737;28;20119;-73
2023/04/29 00:19:17;;;;;;;15.13;8.93;;;5.30;99.90;;;;;;4161705;28;20287;-73
2023/04/29 00:21:18;;;;;;;15.77;8.67;;;5.30;99.90;;;;;;4147569;28;20357;-71
2023/04/29 00:23:19;;;;;;;18.77;8.93;;;5.20;99.90;;;;;;4145023;28;20104;-73
2023/04/29 00:25:20;;;;;;;15.43;8.50;;;5.10;99.90;;;;;;4147494;28;20272;-73
2023/04/29 00:27:21;;;;;;;13.77;8.40;;;5.00;99.90;;;;;;4146351;28;20037;-73
2023/04/29 00:29:23;;;;;;;13.17;8.10;;;5.00;99.90;;;;;;4147008;28;20256;-73
2023/04/29 00:31:24;;;;;;;15.07;8.33;;;4.90;99.90;;;;;;4146558;28;20083;-73
2023/04/29 00:33:25;;;;;;;15.83;8.10;;;4.90;99.90;;;;;;4128943;28;20350;-72
2023/04/29 00:35:26;;;;;;;15.83;8.93;;;4.90;99.90;;;;;;4146922;28;20437;-72
2023/04/29 00:37:27;;;;;;;15.83;9.17;;;4.90;99.90;;;;;;4146113;28;20260;-73
2023/04/29 00:39:29;;;;;;;17.53;8.77;;;4.90;99.90;;;;;;4146484;28;20342;-73
2023/04/29 00:41:30;;;;;;;17.00;8.27;;;4.90;99.90;;;;;;4161274;28;20316;-73
2023/04/29 00:43:32;;;;;;;16.50;8.53;;;4.90;99.90;;;;;;4146737;28;20279;-71
2023/04/29 00:45:33;;;;;;;16.60;8.87;;;4.90;99.90;;;;;;4145530;28;20287;-70
2023/04/29 00:47:34;;;;;;;21.97;10.33;;;4.90;99.90;;;;;;4146894;28;20264;-70
2023/04/29 00:49:36;;;;;;;16.00;8.17;;;4.90;99.90;;;;;;4145871;28;20326;-71
2023/04/29 00:51:39;;;;;;;13.20;8.00;;;4.80;99.90;;;;;;4147096;28;20671;-74
2023/04/29 00:53:40;;;;;;;18.17;8.63;;;4.80;99.90;;;;;;4145793;28;20663;-67
2023/04/29 00:55:45;;;;;;;13.43;7.80;;;4.90;99.90;;;;;;4147018;28;20313;-73
2023/04/29 00:57:48;;;;;;;12.03;7.47;;;4.80;99.90;;;;;;4145794;28;20255;-73
2023/04/29 00:59:49;;;;;;;13.87;7.97;;;4.80;99.90;;;;;;4146601;28;20267;-66
2023/04/29 01:01:52;;;;;;;10.63;6.73;;;4.80;99.90;;;;;;4145818;28;20263;-72
2023/04/29 01:03:54;;;;;;;12.63;7.70;;;4.80;99.90;;;;;;4147045;28;20315;-74
2023/04/29 01:06:12;;;;;;;12.00;7.33;;;4.80;99.90;;;;;;4146264;28;20271;-72
2023/04/29 01:08:19;;;;;;;13.13;8.00;;;4.80;99.90;;;;;;4146313;28;20272;-73
2023/04/29 01:10:28;;;;;;;11.80;7.00;;;4.90;99.90;;;;;;4146166;28;20306;-69
2023/04/29 01:12:49;;;;;;;15.70;7.50;;;4.90;99.90;;;;;;4156131;28;20336;-72
2023/04/29 01:15:07;;;;;;;12.90;5.57;;;4.90;99.90;;;;;;4162090;28;20667;-72
2023/04/29 01:17:13;;;;;;;11.17;5.33;;;4.90;99.90;;;;;;4162601;28;20597;-73
2023/04/29 01:19:16;;;;;;;9.83;5.50;;;4.90;99.90;;;;;;4143773;28;20314;-72
2023/04/29 01:21:18;;;;;;;10.63;6.23;;;4.90;99.90;;;;;;4161777;28;20275;-72
2023/04/29 01:23:19;;;;;;;12.27;6.57;;;4.90;99.90;;;;;;4162120;28;20267;-73
2023/04/29 01:25:20;;;;;;;14.07;7.17;;;4.90;99.90;;;;;;4162250;28;20759;-72
2023/04/29 01:27:32;;;;;;;11.87;6.50;;;4.90;99.90;;;;;;4162105;28;20328;-72
2023/04/29 01:29:48;;;;;;;16.93;7.43;;;4.80;99.90;;;;;;4162119;28;20731;-72
2023/04/29 01:32:03;;;;;;;13.97;8.10;;;4.80;99.90;;;;;;4161765;28;20274;-73
2023/04/29 01:34:24;;;;;;;15.03;8.77;;;4.80;99.90;;;;;;4160481;28;20298;-73
2023/04/29 01:36:32;;;;;;;14.87;8.07;;;4.70;99.90;;;;;;4145134;28;20326;-73
2023/04/29 01:38:57;;;;;;;14.17;8.73;;;4.70;99.90;;;;;;4145958;28;20861;-73
2023/04/29 01:41:22;;;;;;;15.83;8.17;;;4.60;99.90;;;;;;4133776;28;20283;-71
2023/04/29 01:43:27;;;;;;;16.10;8.83;;;4.60;99.90;;;;;;4146240;28;20330;-73
2023/04/29 01:45:31;;;;;;;15.33;8.40;;;4.60;99.90;;;;;;4144602;28;20267;-73
2023/04/29 01:47:32;;;;;;;16.30;8.83;;;4.50;99.90;;;;;;4145993;28;20326;-71
2023/04/29 01:49:37;;;;;;;15.90;8.70;;;4.50;99.90;;;;;;4145618;28;20267;-70
2023/04/29 01:51:38;;;;;;;18.33;8.70;;;4.40;99.90;;;;;;4160636;28;20750;-72
2023/04/29 01:53:39;;;;;;;15.93;9.10;;;4.30;99.90;;;;;;4145205;28;20334;-71
2023/04/29 01:55:40;;;;;;;16.60;9.37;;;4.30;99.90;;;;;;4144844;28;20255;-73
2023/04/29 01:57:41;;;;;;;14.90;7.80;;;4.30;99.90;;;;;;4145471;28;20259;-72
2023/04/29 01:59:42;;;;;;;14.47;8.10;;;4.20;99.90;;;;;;4144632;28;20322;-73
2023/04/29 02:01:43;;;;;;;10.60;7.10;;;4.20;99.90;;;;;;4127981;28;20284;-73
2023/04/29 02:03:45;;;;;;;11.37;7.00;;;4.20;99.90;;;;;;4144858;28;20325;-73
2023/04/29 02:05:46;;;;;;;12.53;7.60;;;4.20;99.90;;;;;;4145390;28;20818;-70
2023/04/29 02:07:47;;;;;;;14.20;7.53;;;4.10;99.90;;;;;;4127020;28;20315;-72
2023/04/29 02:09:48;;;;;;;15.97;8.23;;;4.00;99.90;;;;;;4145818;28;20279;-72
2023/04/29 02:11:49;;;;;;;17.23;7.87;;;3.90;99.90;;;;;;4158419;28;20274;-72
2023/04/29 02:13:50;;;;;;;17.87;7.67;;;3.90;99.90;;;;;;4162000;28;20773;-69
2023/04/29 02:15:51;;;;;;;15.20;7.90;;;3.80;99.90;;;;;;4160152;28;20293;-71
2023/04/29 02:17:53;;;;;;;16.43;8.67;;;3.80;99.90;;;;;;4161576;28;20335;-71
2023/04/29 02:19:54;;;;;;;11.57;7.27;;;3.70;99.90;;;;;;4160566;28;20340;-72
2023/04/29 02:21:55;;;;;;;18.83;8.20;;;3.60;99.90;;;;;;4131803;28;20350;-72
2023/04/29 02:23:56;;;;;;;16.03;8.90;;;3.60;99.90;;;;;;4144683;28;20647;-69
2023/04/29 02:25:58;;;;;;;17.87;8.40;;;3.50;99.90;;;;;;4145098;28;20286;-73
2023/04/29 02:27:59;;;;;;;31.10;15.10;;;3.40;99.90;;;;;;4145173;28;20735;-72
2023/04/29 02:30:00;;;;;;;30.43;12.63;;;3.40;99.90;;;;;;4144140;28;20279;-71
2023/04/29 02:32:01;;;;;;;35.90;15.73;;;3.30;99.90;;;;;;4145299;28;20310;-74
2023/04/29 02:34:03;;;;;;;47.07;20.87;;;3.10;99.90;;;;;;4144176;28;20329;-73
2023/04/29 02:36:04;;;;;;;30.60;15.40;;;2.90;99.90;;;;;;4145472;28;20318;-71
2023/04/29 02:38:05;;;;;;;18.80;10.70;;;2.70;99.90;;;;;;4143577;28;20318;-72
2023/04/29 02:40:07;;;;;;;20.30;10.73;;;2.60;99.90;;;;;;4159375;28;20604;-68
2023/04/29 02:42:08;;;;;;;21.63;11.63;;;2.50;99.90;;;;;;4160932;28;20271;-69
2023/04/29 02:44:09;;;;;;;20.07;10.10;;;2.40;99.90;;;;;;4160972;28;20266;-71
2023/04/29 02:46:11;;;;;;;21.00;9.83;;;2.40;99.90;;;;;;4159666;28;20344;-70
2023/04/29 02:48:12;;;;;;;19.30;11.33;;;2.30;99.90;;;;;;4161297;28;20698;-72
2023/04/29 02:50:13;;;;;;;18.93;10.87;;;2.30;99.90;;;;;;4160270;28;20274;-73
2023/04/29 02:52:16;;;;;;;21.47;10.83;;;2.30;99.90;;;;;;4161535;28;20651;-72
2023/04/29 02:54:17;;;;;;;19.90;10.53;;;2.30;99.90;;;;;;4160361;28;20295;-71
2023/04/29 02:56:18;;;;;;;25.20;11.90;;;2.30;99.90;;;;;;4160732;28;20662;-71
2023/04/29 02:58:20;;;;;;;29.47;11.40;;;2.30;99.90;;;;;;4161091;28;20254;-72
2023/04/29 03:00:21;;;;;;;23.07;10.80;;;2.30;99.90;;;;;;4160389;28;20767;-73
2023/04/29 03:02:22;;;;;;;22.43;11.27;;;2.30;99.90;;;;;;4161208;28;20317;-67
2023/04/29 03:04:24;;;;;;;19.83;11.37;;;2.30;99.90;;;;;;4160073;28;20271;-71
2023/04/29 03:06:26;;;;;;;18.60;11.50;;;2.20;99.90;;;;;;4161590;28;20324;-74
2023/04/29 03:08:27;;;;;;;21.80;11.40;;;2.20;99.90;;;;;;4160502;28;20255;-68
2023/04/29 03:10:29;;;;;;;20.87;11.57;;;2.20;99.90;;;;;;4161591;28;20308;-73
2023/04/29 03:12:30;;;;;;;23.63;11.97;;;2.10;99.90;;;;;;4160841;28;20309;-68
2023/04/29 03:14:31;;;;;;;29.20;13.20;;;2.10;99.90;;;;;;4161171;28;20302;-71
2023/04/29 03:16:33;;;;;;;23.87;12.70;;;2.10;99.90;;;;;;4160269;28;20271;-69
2023/04/29 03:18:34;;;;;;;22.70;12.30;;;2.10;99.90;;;;;;4161047;28;20283;-70
2023/04/29 03:20:35;;;;;;;25.47;12.87;;;2.10;99.90;;;;;;4159913;28;20266;-67
2023/04/29 03:22:37;;;;;;;37.30;14.50;;;2.10;99.90;;;;;;4161558;28;20263;-72
2023/04/29 03:24:38;;;;;;;31.23;12.67;;;2.20;99.90;;;;;;4160494;28;20309;-70
2023/04/29 03:26:41;;;;;;;23.23;12.57;;;2.30;99.90;;;;;;4160880;28;20801;-73
2023/04/29 03:28:42;;;;;;;27.37;13.83;;;2.40;99.90;;;;;;4160430;28;20337;-72
2023/04/29 03:30:43;;;;;;;27.17;12.23;;;2.40;99.90;;;;;;4160735;28;20263;-73
2023/04/29 03:32:45;;;;;;;26.00;13.27;;;2.40;99.90;;;;;;4160967;28;20267;-67
2023/04/29 03:34:46;;;;;;;30.00;13.07;;;2.60;99.90;;;;;;4159329;28;20352;-73
2023/04/29 03:36:47;;;;;;;22.33;12.43;;;2.70;99.90;;;;;;4161131;28;20259;-73
2023/04/29 03:38:48;;;;;;;22.67;12.37;;;2.90;99.90;;;;;;4159672;28;20297;-73
2023/04/29 03:40:49;;;;;;;23.20;12.20;;;3.10;99.90;;;;;;4161024;28;20274;-73
2023/04/29 03:42:50;;;;;;;25.27;13.20;;;3.20;99.90;;;;;;4159900;28;20596;-73
2023/04/29 03:44:52;;;;;;;23.03;12.17;;;3.20;99.90;;;;;;4160683;28;20263;-72
2023/04/29 03:46:53;;;;;;;23.00;12.43;;;3.30;99.90;;;;;;4159020;28;20942;-71
2023/04/29 03:48:54;;;;;;;22.33;12.50;;;3.10;99.90;;;;;;4161327;28;20316;-72
2023/04/29 03:50:56;;;;;;;27.40;14.23;;;3.00;99.90;;;;;;4160065;28;20317;-63
2023/04/29 03:52:57;;;;;;;28.27;13.67;;;2.80;99.90;;;;;;4160913;28;20682;-72
2023/04/29 03:54:58;;;;;;;27.50;13.40;;;2.70;99.90;;;;;;4160054;28;20353;-73
2023/04/29 03:56:59;;;;;;;25.63;13.57;;;2.70;99.90;;;;;;4162662;28;20275;-73
2023/04/29 03:59:00;;;;;;;28.73;15.53;;;2.70;99.90;;;;;;4163384;28;20715;-72
2023/04/29 04:01:02;;;;;;;31.53;14.03;;;2.70;99.90;;;;;;4161107;28;20399;-73
2023/04/29 04:03:03;;;;;;;23.77;13.30;;;2.80;99.90;;;;;;4164030;28;20316;-72
2023/04/29 04:05:04;;;;;;;31.90;13.13;;;2.80;99.90;;;;;;4162793;28;20279;-74
2023/04/29 04:07:05;;;;;;;27.33;13.20;;;2.90;99.90;;;;;;4163479;28;20301;-71
2023/04/29 04:09:07;;;;;;;25.83;12.97;;;3.00;99.90;;;;;;4160449;28;20316;-72
2023/04/29 04:11:08;;;;;;;23.63;12.50;;;3.00;99.90;;;;;;4147375;28;20329;-72
2023/04/29 04:13:09;;;;;;;25.47;13.67;;;3.20;99.90;;;;;;4146900;28;20275;-73
2023/04/29 04:15:10;;;;;;;26.83;13.87;;;3.40;99.90;;;;;;4147273;28;20353;-68
2023/04/29 04:17:11;;;;;;;25.90;13.23;;;3.50;99.90;;;;;;4149440;28;20317;-71
2023/04/29 04:19:13;;;;;;;25.20;13.37;;;3.60;99.90;;;;;;4154591;28;20291;-74
2023/04/29 04:21:14;;;;;;;37.37;14.60;;;3.80;99.90;;;;;;4162584;28;20735;-71
2023/04/29 04:23:15;;;;;;;28.40;13.53;;;3.80;99.90;;;;;;4163811;28;20325;-74
2023/04/29 04:25:16;;;;;;;28.00;14.70;;;3.90;99.90;;;;;;4154409;28;20751;-72
2023/04/29 04:27:17;;;;;;;36.50;14.83;;;4.10;99.90;;;;;;4146092;28;20794;-75
2023/04/29 04:29:19;;;;;;;36.77;15.90;;;4.20;99.90;;;;;;4146518;28;20259;-71
2023/04/29 04:31:20;;;;;;;41.53;16.50;;;4.30;99.90;;;;;;4145715;28;20271;-74
2023/04/29 04:33:21;;;;;;;51.80;18.30;;;4.40;99.90;;;;;;4146664;28;20314;-75
2023/04/29 04:35:22;;;;;;;52.30;19.00;;;4.50;99.90;;;;;;4146964;28;20346;-76
2023/04/29 04:37:23;;;;;;;55.90;17.83;;;4.80;99.90;;;;;;4136686;28;20263;-73
2023/04/29 04:39:25;;;;;;;43.50;16.67;;;4.90;99.90;;;;;;4162188;28;20665;-74
2023/04/29 04:41:26;;;;;;;40.07;15.00;;;5.20;99.90;;;;;;4163076;28;20279;-65
2023/04/29 04:43:27;;;;;;;25.97;13.73;;;5.50;99.90;;;;;;4162695;28;20271;-73
2023/04/29 04:45:29;;;;;;;33.80;13.73;;;5.70;99.90;;;;;;4163442;28;20284;-72
2023/04/29 04:47:30;;;;;;;28.17;13.70;;;5.90;99.90;;;;;;4162082;28;20266;-67
2023/04/29 04:49:31;;;;;;;26.30;13.07;;;6.10;99.90;;;;;;4162415;28;20344;-74
2023/04/29 04:51:32;;;;;;;29.83;12.53;;;6.00;99.90;;;;;;4162007;28;20297;-61
2023/04/29 04:53:33;;;;;;;24.13;12.77;;;6.00;99.90;;;;;;4162424;28;20389;-69
2023/04/29 04:55:35;;;;;;;24.43;13.23;;;5.90;99.90;;;;;;4161637;28;20313;-68
2023/04/29 04:57:36;;;;;;;26.30;12.83;;;6.00;99.90;;;;;;4154557;28;20306;-73
2023/04/29 04:59:37;;;;;;;23.23;13.53;;;6.10;99.90;;;;;;4146184;28;20294;-76
2023/04/29 05:01:38;;;;;;;26.30;13.67;;;6.10;99.90;;;;;;4145743;28;20325;-73
2023/04/29 05:03:39;;;;;;;32.20;15.03;;;6.20;99.90;;;;;;4146169;28;20818;-73
2023/04/29 05:05:41;;;;;;;20.67;12.60;;;6.20;99.90;;;;;;4144968;28;20084;-73
2023/04/29 05:07:42;;;;;;;36.20;13.87;;;6.30;99.90;;;;;;4145896;28;20088;-76
2023/04/29 05:09:43;;;;;;;29.20;13.80;;;6.30;99.90;;;;;;4144689;28;20275;-73
2023/04/29 05:11:45;;;;;;;31.93;13.43;;;6.30;99.90;;;;;;4145864;28;20279;-70
2023/04/29 05:13:47;;;;;;;34.03;14.60;;;6.30;99.90;;;;;;4145781;28;20026;-76
2023/04/29 05:15:48;;;;;;;23.57;13.90;;;6.20;99.90;;;;;;4146579;28;20033;-74
2023/04/29 05:17:49;;;;;;;25.67;13.43;;;6.10;99.90;;;;;;4155022;28;20674;-70
2023/04/29 05:19:50;;;;;;;22.80;12.17;;;6.10;99.90;;;;;;4148004;28;20038;-74
2023/04/29 05:21:52;;;;;;;26.43;13.43;;;6.20;99.90;;;;;;4144962;28;20276;-76
2023/04/29 05:23:53;;;;;;;22.77;13.23;;;6.30;99.90;;;;;;4145463;28;20038;-74
2023/04/29 05:25:54;;;;;;;20.80;12.47;;;6.40;99.90;;;;;;4144571;28;20018;-76
2023/04/29 05:27:55;;;;;;;25.77;13.30;;;6.50;99.90;;;;;;4150356;28;20275;-76
2023/04/29 05:29:57;;;;;;;23.63;13.27;;;6.50;99.90;;;;;;4161094;28;20449;-76
2023/04/29 05:31:58;;;;;;;20.63;11.77;;;6.60;99.90;;;;;;4161228;28;20026;-76
2023/04/29 05:34:00;;;;;;;24.87;12.77;;;6.70;99.90;;;;;;4161573;28;20053;-76
2023/04/29 05:36:01;;;;;;;22.03;12.70;;;6.80;99.90;;;;;;4161279;28;20336;-74
2023/04/29 05:38:03;;;;;;;23.13;13.00;;;6.70;99.90;;;;;;4159371;28;20091;-72
2023/04/29 05:40:04;;;;;;;29.47;14.43;;;6.80;99.90;;;;;;4127240;28;20038;-76
2023/04/29 05:42:06;;;;;;;26.77;16.10;;;6.80;99.90;;;;;;4145309;28;20034;-76
2023/04/29 05:44:07;;;;;;;22.67;13.00;;;7.00;99.90;;;;;;4144527;28;20299;-76
2023/04/29 05:46:08;;;;;;;29.53;13.13;;;7.00;99.90;;;;;;4145554;28;20088;-76
2023/04/29 05:48:10;;;;;;;21.33;12.20;;;7.10;99.90;;;;;;4143972;28;20042;-76
2023/04/29 05:50:11;;;;;;;22.30;12.77;;;7.20;99.90;;;;;;4145638;28;20099;-77
2023/04/29 05:52:12;;;;;;;27.87;13.80;;;7.20;99.90;;;;;;4144541;28;20057;-76
2023/04/29 05:54:13;;;;;;;18.93;10.83;;;7.30;99.90;;;;;;4158319;28;20114;-76
2023/04/29 05:56:15;;;;;;;15.60;10.83;;;7.60;99.90;;;;;;4154692;28;20037;-76
2023/04/29 05:58:16;;;;;;;20.33;10.73;;;7.70;99.90;;;;;;4144783;28;20022;-74
2023/04/29 06:00:18;;;;;;;18.23;10.83;;;7.80;99.90;;;;;;4144281;28;20038;-74
2023/04/29 06:02:19;;;;;;;20.57;10.97;;;7.90;99.90;;;;;;4144340;28;20034;-76
2023/04/29 06:04:20;;;;;;;20.00;10.63;;;7.90;99.90;;;;;;4144654;28;20030;-76
2023/04/29 06:06:21;;;;;;;16.80;10.27;;;8.10;99.90;;;;;;4144416;28;20068;-73
2023/04/29 06:08:22;;;;;;;17.70;10.93;;;7.90;99.90;;;;;;4144676;28;20088;-77
2023/04/29 06:10:24;;;;;;;21.33;11.37;;;7.90;99.90;;;;;;4143092;28;20096;-76
2023/04/29 06:12:26;;;;;;;20.40;12.00;;;7.90;99.90;;;;;;4145199;28;20041;-72
2023/04/29 06:14:27;;;;;;;19.60;9.97;;;7.90;99.90;;;;;;4144584;28;20095;-68
2023/04/29 06:16:28;;;;;;;17.00;10.17;;;8.30;99.90;;;;;;4159376;28;20045;-76
2023/04/29 06:18:29;;;;;;;15.07;10.60;;;8.30;99.90;;;;;;4154363;28;20049;-75
2023/04/29 06:20:30;;;;;;;18.57;11.27;;;8.30;99.90;;;;;;4157338;28;20046;-66
2023/04/29 06:22:31;;;;;;;16.00;10.03;;;8.20;99.90;;;;;;4159371;28;20551;-77
2023/04/29 06:24:32;;;;;;;17.33;10.90;;;8.10;99.90;;;;;;4158565;28;20073;-77
2023/04/29 06:26:34;;;;;;;19.23;9.83;;;8.10;99.90;;;;;;4143426;28;20030;-73
2023/04/29 06:28:35;;;;;;;17.37;10.33;;;8.10;99.90;;;;;;4144594;28;20034;-76
2023/04/29 06:30:36;;;;;;;15.20;9.70;;;8.10;99.90;;;;;;4143983;28;20034;-76
2023/04/29 06:32:38;;;;;;;17.30;10.40;;;8.00;99.90;;;;;;4144172;28;20045;-76
2023/04/29 06:34:39;;;;;;;17.03;9.97;;;8.10;99.90;;;;;;4144242;28;20084;-77
2023/04/29 06:36:40;;;;;;;18.70;10.70;;;8.30;99.90;;;;;;4143640;28;20628;-76
2023/04/29 06:38:42;;;;;;;18.33;10.27;;;8.30;99.90;;;;;;4144095;28;20719;-76
2023/04/29 06:40:43;;;;;;;17.87;9.67;;;8.40;99.90;;;;;;4145862;28;20452;-76
2023/04/29 06:42:44;;;;;;;22.53;10.00;;;8.40;99.90;;;;;;4161216;28;20477;-75
2023/04/29 06:44:45;;;;;;;17.00;10.20;;;8.50;99.90;;;;;;4152658;28;20022;-75
2023/04/29 06:46:46;;;;;;;19.03;10.30;;;8.80;99.90;;;;;;4160272;28;20029;-75
2023/04/29 06:48:47;;;;;;;14.97;9.70;;;9.00;99.90;;;;;;4141958;28;20072;-73
2023/04/29 06:50:56;;;;;;;19.33;10.20;;;9.20;99.90;;;;;;4148843;28;20087;-76
2023/04/29 06:52:57;;;;;;;21.30;9.47;;;9.30;99.90;;;;;;4152060;28;20096;-76
2023/04/29 06:54:58;;;;;;;16.30;9.93;;;9.40;99.90;;;;;;4146393;28;20096;-71
2023/04/29 06:56:59;;;;;;;17.73;8.73;;;9.50;99.90;;;;;;4143018;28;20035;-75
2023/04/29 06:59:01;;;;;;;14.33;8.97;;;9.70;99.90;;;;;;4144519;28;20072;-73
2023/04/29 07:01:03;;;;;;;15.67;10.00;;;9.90;99.90;;;;;;4134581;28;20017;-79
2023/04/29 07:03:04;;;;;;;18.27;8.93;;;10.10;99.90;;;;;;4159607;28;20103;-78
2023/04/29 07:05:05;;;;;;;17.87;9.40;;;10.20;99.90;;;;;;4157593;28;20429;-63
2023/04/29 07:07:07;;;;;;;15.73;9.77;;;10.30;99.90;;;;;;4157491;28;20041;-76
2023/04/29 07:09:08;;;;;;;15.20;8.57;;;10.70;99.90;;;;;;4160605;28;20532;-74
2023/04/29 07:11:09;;;;;;;14.37;8.03;;;10.80;99.90;;;;;;4147088;28;20080;-69
2023/04/29 07:13:10;;;;;;;15.73;8.43;;;10.90;99.90;;;;;;4145052;28;20030;-74
2023/04/29 07:15:11;;;;;;;12.23;7.60;;;11.20;99.90;;;;;;4159261;28;20489;-70
2023/04/29 07:17:12;;;;;;;11.43;7.10;;;11.30;99.90;;;;;;4160842;28;20146;-75
2023/04/29 07:19:14;;;;;;;11.80;7.57;;;11.40;99.90;;;;;;4159926;28;20060;-76
2023/04/29 07:21:15;;;;;;;11.67;7.07;;;11.50;99.90;;;;;;4160440;28;20091;-73
2023/04/29 07:23:16;;;;;;;10.93;7.37;;;11.70;99.90;;;;;;4148887;28;20415;-73
2023/04/29 07:25:17;;;;;;;11.73;7.83;;;11.80;99.90;;;;;;4144164;28;20034;-69
2023/04/29 07:27:18;;;;;;;8.57;6.37;;;11.70;99.90;;;;;;4147587;28;20091;-73
2023/04/29 07:29:20;;;;;;;10.83;6.57;;;11.80;99.90;;;;;;4161035;28;20038;-72
2023/04/29 07:31:21;;;;;;;8.60;6.47;;;11.90;99.90;;;;;;4160164;28;20037;-70
2023/04/29 07:33:22;;;;;;;12.53;6.37;;;12.00;99.90;;;;;;4163582;28;20038;-72
2023/04/29 07:35:23;;;;;;;9.30;6.53;;;12.00;99.90;;;;;;4162735;28;20065;-73
2023/04/29 07:37:24;;;;;;;15.17;6.37;;;12.00;99.90;;;;;;4163456;28;20087;-71
2023/04/29 07:39:25;;;;;;;9.90;6.03;;;12.10;99.90;;;;;;4162683;28;20017;-75
2023/04/29 07:41:27;;;;;;;12.03;6.40;;;12.10;99.90;;;;;;4163222;28;20033;-72
2023/04/29 07:43:28;;;;;;;11.30;5.70;;;12.30;99.90;;;;;;4163582;28;20059;-72
2023/04/29 07:45:29;;;;;;;9.13;5.50;;;12.50;99.50;;;;;;4150362;28;20084;-76
2023/04/29 07:47:30;;;;;;;14.00;6.37;;;12.40;99.30;;;;;;4147067;28;20884;-72
2023/04/29 07:49:32;;;;;;;16.13;7.60;;;12.50;99.40;;;;;;4146272;28;20037;-71
2023/04/29 07:51:33;;;;;;;8.57;5.07;;;12.60;99.10;;;;;;4147616;28;20026;-74
2023/04/29 07:53:34;;;;;;;9.57;5.27;;;12.80;98.20;;;;;;4147839;28;20038;-69
2023/04/29 07:55:37;;;;;;;8.30;5.23;;;13.10;97.80;;;;;;4147162;28;20066;-73
2023/04/29 07:57:38;;;;;;;8.93;5.90;;;13.50;96.30;;;;;;4145973;28;20088;-75
2023/04/29 07:59:39;;;;;;;7.60;4.93;;;13.80;96.60;;;;;;4147370;28;20072;-82
2023/04/29 08:01:41;;;;;;;8.73;5.37;;;13.90;96.70;;;;;;4146197;28;20025;-85
2023/04/29 08:03:42;;;;;;;6.60;3.93;;;14.00;96.20;;;;;;4155668;28;20056;-78
2023/04/29 08:05:43;;;;;;;8.50;3.27;;;14.10;94.60;;;;;;4162820;28;20030;-74
2023/04/29 08:07:45;;;;;;;6.87;3.00;;;14.30;93.80;;;;;;4151006;28;20815;-65
2023/04/29 08:09:46;;;;;;;7.70;3.10;;;14.30;92.70;;;;;;4140466;28;20076;-75
2023/04/29 08:11:47;;;;;;;5.17;3.00;;;14.30;92.20;;;;;;4162400;28;20037;-75
2023/04/29 08:13:49;;;;;;;8.67;2.60;;;14.40;91.70;;;;;;4162839;28;20486;-74
2023/04/29 08:15:50;;;;;;;2.77;2.20;;;14.60;91.00;;;;;;4162199;28;20029;-62
2023/04/29 08:17:51;;;;;;;4.67;2.13;;;14.40;87.80;;;;;;4161709;28;20100;-73
2023/04/29 08:19:53;;;;;;;3.70;1.93;;;14.30;86.50;;;;;;4145907;28;21053;-72
2023/04/29 08:21:54;;;;;;;2.97;1.90;;;14.20;87.10;;;;;;4146698;28;20038;-72
2023/04/29 08:23:55;;;;;;;6.30;2.37;;;14.30;85.70;;;;;;4154582;28;20038;-72
2023/04/29 08:25:57;;;;;;;4.23;1.97;;;14.40;86.20;;;;;;4162976;28;20050;-75
2023/04/29 08:27:58;;;;;;;7.73;2.43;;;14.60;85.30;;;;;;4157512;28;20421;-68
2023/04/29 08:29:59;;;;;;;4.33;1.90;;;15.00;85.10;;;;;;4148953;28;20092;-72
2023/04/29 08:32:00;;;;;;;3.07;1.90;;;15.30;83.60;;;;;;4145356;28;20038;-69
2023/04/29 08:34:01;;;;;;;7.33;1.60;;;15.40;82.40;;;;;;4146543;28;20057;-72
2023/04/29 08:36:02;;;;;;;3.63;2.10;;;15.40;81.70;;;;;;4127800;28;20054;-72
2023/04/29 08:38:05;;;;;;;4.90;1.60;;;15.30;81.00;;;;;;4129262;28;20164;-73
2023/04/29 08:40:07;;;;;;;3.07;1.80;;;15.70;80.20;;;;;;4148203;28;20033;-74
2023/04/29 08:42:09;;;;;;;3.97;2.13;;;15.90;77.80;;;;;;4145947;28;20042;-77
2023/04/29 08:44:10;;;;;;;2.53;1.50;;;16.00;77.80;;;;;;4145445;28;20030;-77
2023/04/29 08:46:12;;;;;;;4.15;1.77;;;16.00;76.80;;;;;;4155208;28;20045;-77
2023/04/29 08:48:15;;;;;;;7.35;2.13;;;15.90;76.20;;;;;;4162642;28;20104;-81
2023/04/29 08:50:17;;;;;;;3.92;2.20;;;15.80;75.40;;;;;;4162043;28;20083;-73
2023/04/29 08:52:18;;;;;;;3.55;1.88;;;15.60;75.50;;;;;;4161475;28;20144;-71
2023/04/29 08:54:19;;;;;;;4.13;2.17;;;15.60;75.60;;;;;;4161276;28;20091;-74
2023/04/29 08:56:22;;;;;;;4.72;1.55;;;15.70;75.50;;;;;;4162488;28;20041;-72
2023/04/29 08:58:25;;;;;;;4.22;2.25;;;15.70;74.40;;;;;;4161773;28;20355;-73
2023/04/29 09:00:26;;;;;;;3.83;2.13;;;15.60;74.60;;;;;;4161953;28;20180;-70
2023/04/29 09:02:28;;;;;;;3.40;1.63;;;15.40;74.60;;;;;;4157857;28;20529;-74
2023/04/29 09:04:45;;;;;;;3.65;2.28;;;15.40;74.30;;;;;;4161422;28;20095;-71
2023/04/29 09:06:47;;;;;;;3.10;1.85;;;15.40;74.20;;;;;;4156438;28;20053;-72
2023/04/29 09:08:48;;;;;;;3.75;2.05;;;15.60;74.80;;;;;;4162473;28;20087;-73
2023/04/29 09:10:51;;;;;;;4.32;2.55;;;15.70;73.50;;;;;;4161463;28;20095;-70
2023/04/29 09:12:57;;;;;;;6.47;2.58;;;15.80;72.80;;;;;;4160608;28;20859;-68
2023/04/29 09:14:58;;;;;;;4.63;2.40;;;15.90;72.80;;;;;;4161839;28;20088;-64
2023/04/29 09:16:59;;;;;;;4.35;2.13;;;16.20;73.10;;;;;;4161409;28;20101;-64
2023/04/29 09:19:00;;;;;;;3.17;2.22;;;16.40;72.40;;;;;;4161674;28;20087;-60
2023/04/29 09:21:19;;;;;;;3.88;2.58;;;16.40;72.10;;;;;;4160709;28;20490;-68
2023/04/29 09:23:35;;;;;;;3.97;1.92;;;16.40;71.50;;;;;;4156456;28;20033;-66
2023/04/29 09:25:36;;;;;;;3.30;2.10;;;16.40;71.20;;;;;;4145261;28;20037;-64
2023/04/29 09:27:38;;;;;;;1.85;1.75;;;16.30;71.40;;;;;;4144862;28;20088;-66
2023/04/29 09:29:59;;;;;;;2.35;1.80;;;16.50;71.70;;;;;;4157400;28;20046;-71
2023/04/29 09:32:01;;;;;;;2.95;1.73;;;;;;;;;;4161247;28;20025;-66
2023/04/29 09:34:03;;;;;;;3.13;1.70;;;;;;;;;;4161464;28;20030;-59
2023/04/29 09:36:04;;;;;;;3.83;2.00;;;;;;;;;;4161947;28;20498;-62
2023/04/29 09:38:13;;;;;;;3.83;2.28;;;16.70;70.10;;;;;;4161365;28;20087;-73
2023/04/29 09:40:30;;;;;;;5.28;2.20;;;17.10;69.40;;;;;;4162217;28;20029;-71
2023/04/29 09:42:42;;;;;;;4.97;1.70;;;16.80;69.70;;;;;;4160772;28;20034;-70
2023/04/29 09:44:44;;;;;;;3.50;2.22;;;16.90;70.50;;;;;;4145510;28;20042;-65
2023/04/29 09:47:03;;;;;;;4.07;1.73;;;17.00;70.30;;;;;;4144380;28;20046;-71
2023/04/29 09:49:22;;;;;;;5.05;1.98;;;;;;;;;;4127477;28;20427;-70
2023/04/29 09:51:24;;;;;;;6.18;2.13;;;;;;;;;;4148094;28;20030;-69
2023/04/29 09:53:29;;;;;;;3.05;1.83;;;;;;;;;;4149783;28;20095;-73
2023/04/29 09:55:31;;;;;;;2.60;1.98;;;;;;;;;;4160641;28;20298;-69
2023/04/29 09:57:40;;;;;;;5.30;1.83;;;;;;;;;;4160657;28;20033;-73
2023/04/29 09:59:42;;;;;;;4.35;2.38;;;;;;;;;;4160532;28;20082;-72
2023/04/29 10:01:43;;;;;;;3.28;1.63;;;;;;;;;;4161540;28;20037;-72
2023/04/29 10:03:45;;;;;;;4.10;1.75;;;;;;;;;;4160717;28;20080;-72
2023/04/29 10:05:46;;;;;;;3.17;1.75;;;;;;;;;;4157221;28;20037;-73
2023/04/29 10:07:50;;;;;;;6.88;2.95;;;;;;;;;;4148246;28;20552;-72
2023/04/29 10:09:51;;;;;;;4.45;2.45;;;;;;;;;;4146425;28;20076;-77
2023/04/29 10:11:53;;;;;;;3.83;2.05;;;;;;;;;;4143482;28;20046;-65
2023/04/29 10:13:55;;;;;;;3.10;1.67;;;;;;;;;;4144758;28;20030;-62
2023/04/29 10:15:56;;;;;;;3.38;2.05;;;;;;;;;;4143925;28;20054;-71
2023/04/29 10:18:02;;;;;;;2.75;1.70;;;;;;;;;;4145059;28;20100;-67
2023/04/29 10:20:04;;;;;;;4.43;2.00;;;;;;;;;;4144207;28;20136;-71
2023/04/29 10:22:10;;;;;;;2.22;1.40;;;;;;;;;;4144752;28;20046;-74
2023/04/29 10:24:13;;;;;;;2.83;2.17;;;;;;;;;;4144332;28;20478;-72
2023/04/29 10:26:16;;;;;;;4.15;1.73;;;;;;;;;;4144365;28;20030;-74
2023/04/29 10:28:18;;;;;;;1.90;1.35;;;;;;;;;;4148785;28;20548;-60
2023/04/29 10:30:20;;;;;;;4.18;2.00;;;;;;;;;;4160989;28;20087;-81
2023/04/29 10:32:22;;;;;;;3.80;1.70;;;;;;;;;;4159158;28;20060;-73
2023/04/29 10:34:24;;;;;;;2.58;1.92;;;;;;;;;;4160050;28;20029;-74
2023/04/29 10:36:27;;;;;;;1.90;1.55;;;16.90;69.50;;;;;;4161162;28;20041;-76
2023/04/29 10:38:40;;;;;;;5.68;1.75;;;17.00;64.80;;;;;;4159581;28;20045;-74
2023/04/29 10:40:47;;;;;;;3.30;2.03;;;16.80;64.60;;;;;;4160967;28;20131;-69